PAC1 USNN-USRO
Flight info
| Callsign | PAC1 |
|---|---|
| Flight time | N/A |
| Altitude | 31000 |
| Route | NIMOL1N NIMOL DCT URAMI/K0513F300 DCT BOGRI BOGRI1J |
| Aircraft | SF50/L-SDGRWY/L |
Departure
| Time | 2026-04-19 15:18 |
|---|---|
| Airport | Nizhnevartovsk Airport (USNN) |
Arrival
| Time | N/A |
|---|---|
| Airport | Noyabrsk Airport (USRO) |
| Time | Latitude | Longitude | Altitude | Speed | Heading |
|---|---|---|---|---|---|
| 2026-04-19 14:53 | 60.94641 | 76.48408 | 57 ft | 0 kts | 229° |
| 2026-04-19 15:07 | 60.94640 | 76.48407 | 57 ft | 0 kts | 229° |
| 2026-04-19 15:08 | 60.94636 | 76.48404 | 57 ft | 5 kts | 161° |
| 2026-04-19 15:08 | 60.94647 | 76.48423 | 57 ft | 6 kts | 42° |
| 2026-04-19 15:08 | 60.94651 | 76.48433 | 53 ft | 0 kts | 46° |
| 2026-04-19 15:10 | 60.94674 | 76.48472 | 56 ft | 16 kts | 22° |
| 2026-04-19 15:10 | 60.94701 | 76.48562 | 56 ft | 16 kts | 70° |
| 2026-04-19 15:10 | 60.94772 | 76.48712 | 57 ft | 7 kts | 43° |
| 2026-04-19 15:11 | 60.94822 | 76.48799 | 57 ft | 20 kts | 39° |
| 2026-04-19 15:11 | 60.94872 | 76.48987 | 61 ft | 10 kts | 62° |
| 2026-04-19 15:11 | 60.95010 | 76.49126 | 57 ft | 33 kts | 26° |
| 2026-04-19 15:11 | 60.95168 | 76.49388 | 65 ft | 26 kts | 40° |
| 2026-04-19 15:12 | 60.95319 | 76.49658 | 68 ft | 36 kts | 42° |
| 2026-04-19 15:12 | 60.95448 | 76.49847 | 70 ft | 14 kts | 322° |
| 2026-04-19 15:12 | 60.95528 | 76.49790 | 70 ft | 13 kts | 41° |
| 2026-04-19 15:12 | 60.95601 | 76.49923 | 71 ft | 15 kts | 40° |
| 2026-04-19 15:13 | 60.95702 | 76.50112 | 73 ft | 23 kts | 43° |
| 2026-04-19 15:13 | 60.95815 | 76.50291 | 67 ft | 18 kts | 13° |
| 2026-04-19 15:13 | 60.95852 | 76.50295 | 75 ft | 0 kts | 358° |
| 2026-04-19 15:14 | 60.95874 | 76.50294 | 75 ft | 14 kts | 358° |
| 2026-04-19 15:15 | 60.95976 | 76.50208 | 72 ft | 15 kts | 290° |
| 2026-04-19 15:15 | 60.95959 | 76.50118 | 73 ft | 0 kts | 221° |
| 2026-04-19 15:18 | 60.95828 | 76.49887 | 72 ft | 57 kts | 220° |
| 2026-04-19 15:18 | 60.95414 | 76.49099 | 155 ft | 95 kts | 223° |
| 2026-04-19 15:18 | 60.94923 | 76.48166 | 526 ft | 102 kts | 224° |
| 2026-04-19 15:18 | 60.94332 | 76.47062 | 790 ft | 122 kts | 224° |
| 2026-04-19 15:19 | 60.93716 | 76.45927 | 1392 ft | 117 kts | 227° |
| 2026-04-19 15:19 | 60.93233 | 76.44662 | 1914 ft | 109 kts | 241° |
| 2026-04-19 15:19 | 60.92855 | 76.43376 | 2422 ft | 100 kts | 255° |
| 2026-04-19 15:19 | 60.92671 | 76.42029 | 2781 ft | 105 kts | 263° |
| 2026-04-19 15:20 | 60.92495 | 76.40201 | 2737 ft | 148 kts | 263° |
| 2026-04-19 15:20 | 60.92298 | 76.37961 | 2835 ft | 169 kts | 263° |
| 2026-04-19 15:20 | 60.92087 | 76.35473 | 2959 ft | 182 kts | 263° |
| 2026-04-19 15:20 | 60.91897 | 76.32861 | 3078 ft | 187 kts | 265° |
| 2026-04-19 15:21 | 60.92104 | 76.30302 | 3173 ft | 184 kts | 305° |
| 2026-04-19 15:21 | 60.93150 | 76.28991 | 3273 ft | 180 kts | 352° |
| 2026-04-19 15:21 | 60.94378 | 76.29209 | 3405 ft | 179 kts | 20° |
| 2026-04-19 15:21 | 60.95331 | 76.30814 | 3524 ft | 180 kts | 54° |
| 2026-04-19 15:22 | 60.95758 | 76.33228 | 3647 ft | 180 kts | 73° |
| 2026-04-19 15:22 | 60.96058 | 76.35719 | 3771 ft | 179 kts | 71° |
| 2026-04-19 15:22 | 60.96439 | 76.38149 | 3893 ft | 178 kts | 67° |
| 2026-04-19 15:22 | 60.96861 | 76.40544 | 4012 ft | 178 kts | 67° |
| 2026-04-19 15:23 | 60.97283 | 76.42944 | 4146 ft | 178 kts | 67° |
| 2026-04-19 15:23 | 60.97702 | 76.45352 | 4259 ft | 179 kts | 67° |
| 2026-04-19 15:23 | 60.98118 | 76.47763 | 4383 ft | 179 kts | 67° |
| 2026-04-19 15:23 | 60.98533 | 76.50179 | 4504 ft | 179 kts | 67° |
| 2026-04-19 15:24 | 60.98945 | 76.52572 | 4625 ft | 179 kts | 67° |
| 2026-04-19 15:24 | 60.99362 | 76.54998 | 4750 ft | 180 kts | 67° |
| 2026-04-19 15:24 | 60.99781 | 76.57429 | 4872 ft | 180 kts | 66° |
| 2026-04-19 15:24 | 61.00487 | 76.59456 | 4959 ft | 175 kts | 30° |
| 2026-04-19 15:25 | 61.01647 | 76.60040 | 5062 ft | 174 kts | 355° |
| 2026-04-19 15:25 | 61.02838 | 76.59740 | 5165 ft | 173 kts | 7° |
| 2026-04-19 15:25 | 61.03933 | 76.60775 | 5276 ft | 174 kts | 28° |
| 2026-04-19 15:25 | 61.05044 | 76.61751 | 5393 ft | 174 kts | 15° |
| 2026-04-19 15:26 | 61.06190 | 76.62302 | 5791 ft | 156 kts | 11° |
| 2026-04-19 15:26 | 61.07132 | 76.62699 | 6694 ft | 123 kts | 11° |
| 2026-04-19 15:26 | 61.07969 | 76.63067 | 7122 ft | 125 kts | 10° |
| 2026-04-19 15:26 | 61.08769 | 76.63417 | 7782 ft | 103 kts | 7° |
| 2026-04-19 15:27 | 61.09402 | 76.63626 | 8405 ft | 83 kts | 6° |
| 2026-04-19 15:27 | 61.09950 | 76.63847 | 8794 ft | 77 kts | 4° |
| 2026-04-19 15:27 | 61.10450 | 76.64060 | 9070 ft | 76 kts | 5° |
| 2026-04-19 15:27 | 61.10957 | 76.64279 | 9348 ft | 73 kts | 4° |
| 2026-04-19 15:28 | 61.11469 | 76.64502 | 9602 ft | 73 kts | 5° |
| 2026-04-19 15:28 | 61.11979 | 76.64731 | 9824 ft | 76 kts | 4° |
| 2026-04-19 15:28 | 61.12485 | 76.64966 | 10073 ft | 76 kts | 2° |
| 2026-04-19 15:28 | 61.12994 | 76.65201 | 10326 ft | 75 kts | 2° |
| 2026-04-19 15:29 | 61.13501 | 76.65427 | 10544 ft | 74 kts | 2° |
| 2026-04-19 15:29 | 61.14013 | 76.65657 | 10748 ft | 76 kts | 1° |
| 2026-04-19 15:29 | 61.14524 | 76.65889 | 10963 ft | 76 kts | 0° |
| 2026-04-19 15:29 | 61.15038 | 76.66122 | 11187 ft | 75 kts | 0° |
| 2026-04-19 15:30 | 61.15554 | 76.66354 | 11405 ft | 75 kts | 0° |
| 2026-04-19 15:30 | 61.16070 | 76.66592 | 11602 ft | 76 kts | 359° |
| 2026-04-19 15:30 | 61.16585 | 76.66833 | 11814 ft | 76 kts | 359° |
| 2026-04-19 15:30 | 61.17102 | 76.67076 | 12027 ft | 76 kts | 359° |
| 2026-04-19 15:31 | 61.17619 | 76.67320 | 12231 ft | 76 kts | 358° |
| 2026-04-19 15:31 | 61.18138 | 76.67565 | 12432 ft | 77 kts | 358° |
| 2026-04-19 15:31 | 61.18650 | 76.67809 | 12634 ft | 77 kts | 357° |
| 2026-04-19 15:31 | 61.19169 | 76.68053 | 12837 ft | 76 kts | 357° |
| 2026-04-19 15:32 | 61.19521 | 76.68217 | 12994 ft | 77 kts | 356° |
| 2026-04-19 15:32 | 61.20203 | 76.68465 | 13267 ft | 76 kts | 354° |
| 2026-04-19 15:32 | 61.20723 | 76.68812 | 13448 ft | 76 kts | 351° |
| 2026-04-19 15:32 | 61.21114 | 76.68296 | 13621 ft | 65 kts | 318° |
| 2026-04-19 15:33 | 61.21608 | 76.68639 | 13687 ft | 109 kts | 40° |
| 2026-04-19 15:33 | 61.22043 | 76.69503 | 13844 ft | 83 kts | 342° |
| 2026-04-19 15:33 | 61.22542 | 76.69458 | 14204 ft | 69 kts | 358° |
| 2026-04-19 15:33 | 61.23079 | 76.69721 | 14272 ft | 74 kts | 353° |
| 2026-04-19 15:34 | 61.23570 | 76.69879 | 14382 ft | 81 kts | 350° |
| 2026-04-19 15:34 | 61.24081 | 76.70121 | 14629 ft | 73 kts | 351° |
| 2026-04-19 15:34 | 61.24603 | 76.70334 | 14777 ft | 74 kts | 354° |
| 2026-04-19 15:34 | 61.25115 | 76.70564 | 14878 ft | 79 kts | 352° |
| 2026-04-19 15:35 | 61.25624 | 76.70818 | 15071 ft | 76 kts | 350° |
| 2026-04-19 15:35 | 61.26145 | 76.71057 | 15249 ft | 74 kts | 352° |